createdAt,value
2018-08-25T00:00:05.631Z,11.12
2018-08-25T00:02:34.770Z,10.25
2018-08-25T00:05:04.136Z,11.30
2018-08-25T00:07:33.420Z,10.68
2018-08-25T00:10:02.962Z,10.68
2018-08-25T00:12:31.983Z,10.90
2018-08-25T00:15:01.870Z,10.37
2018-08-25T00:17:31.785Z,9.53
2018-08-25T00:20:01.142Z,9.53
2018-08-25T00:22:30.693Z,9.93
2018-08-25T00:25:00.305Z,9.88
2018-08-25T00:27:29.909Z,9.65
2018-08-25T00:29:59.243Z,10.03
2018-08-25T00:32:28.819Z,10.18
2018-08-25T00:34:58.425Z,9.68
2018-08-25T00:37:29.259Z,10.07
2018-08-25T00:39:58.274Z,9.65
2018-08-25T00:42:27.862Z,9.05
2018-08-25T00:44:57.162Z,9.45
2018-08-25T00:47:26.781Z,9.03
2018-08-25T00:49:56.378Z,9.87
2018-08-25T00:52:26.293Z,9.40
2018-08-25T00:54:56.207Z,9.93
2018-08-25T00:57:25.789Z,9.85
2018-08-25T00:59:55.118Z,9.63
2018-08-25T01:02:24.943Z,9.38
2018-08-25T01:04:55.271Z,10.78
2018-08-25T01:07:24.862Z,11.03
2018-08-25T01:09:54.180Z,10.17
2018-08-25T01:12:23.211Z,9.33
2018-08-25T01:14:53.069Z,8.97
2018-08-25T01:17:22.410Z,9.80
2018-08-25T01:19:52.015Z,9.77
2018-08-25T01:22:21.303Z,9.77
2018-08-25T01:24:50.887Z,9.47
2018-08-25T01:27:20.494Z,9.20
2018-08-25T01:29:49.810Z,10.85
2018-08-25T01:32:19.707Z,10.53
2018-08-25T01:34:48.718Z,10.93
2018-08-25T01:37:18.045Z,11.33
2018-08-25T01:39:47.329Z,10.13
2018-08-25T01:42:16.658Z,11.90
2018-08-25T01:44:46.210Z,11.13
2018-08-25T01:47:15.562Z,11.47
2018-08-25T01:49:44.658Z,11.77
2018-08-25T01:52:14.589Z,11.00
2018-08-25T01:54:43.813Z,11.70
2018-08-25T01:57:13.314Z,11.40
2018-08-25T01:59:42.934Z,11.73
2018-08-25T02:02:12.819Z,12.80
2018-08-25T02:04:42.460Z,14.00
2018-08-25T02:07:11.842Z,11.83
2018-08-25T02:09:41.365Z,11.83
2018-08-25T02:12:10.690Z,11.93
2018-08-25T02:14:39.944Z,12.33
2018-08-25T02:17:09.129Z,11.97
2018-08-25T02:19:38.882Z,11.70
2018-08-25T02:22:07.890Z,15.13
2018-08-25T02:24:37.333Z,14.73
2018-08-25T02:27:06.798Z,14.63
2018-08-25T02:29:36.383Z,15.57
2018-08-25T02:32:05.730Z,14.13
2018-08-25T02:34:34.998Z,14.20
2018-08-25T02:37:04.591Z,15.47
2018-08-25T02:39:33.892Z,16.57
2018-08-25T02:42:03.807Z,16.63
2018-08-25T02:44:32.818Z,15.73
2018-08-25T02:47:02.374Z,15.80
2018-08-25T02:49:32.015Z,15.77
2018-08-25T02:52:01.316Z,17.55
2018-08-25T02:54:30.632Z,18.00
2018-08-25T02:57:00.838Z,17.60
2018-08-25T02:59:30.753Z,16.53
2018-08-25T03:01:59.770Z,15.90
2018-08-25T03:04:29.046Z,17.87
2018-08-25T03:06:58.654Z,16.97
2018-08-25T03:09:27.670Z,16.40
2018-08-25T03:11:57.000Z,15.90
2018-08-25T03:14:25.962Z,15.63
2018-08-25T03:16:55.549Z,15.00
2018-08-25T03:19:24.850Z,14.87
2018-08-25T03:21:54.458Z,15.07
2018-08-25T03:24:23.587Z,15.67
2018-08-25T03:26:53.381Z,14.93
2018-08-25T03:29:22.835Z,16.30
2018-08-25T03:31:52.030Z,14.63
2018-08-25T03:34:21.574Z,13.67
2018-08-25T03:36:51.889Z,13.80
2018-08-25T03:39:21.111Z,14.13
2018-08-25T03:41:51.010Z,14.30
2018-08-25T03:44:20.618Z,14.13
2018-08-25T03:46:50.904Z,13.33
2018-08-25T03:49:21.369Z,14.77
2018-08-25T03:51:50.947Z,13.93
2018-08-25T03:54:20.337Z,12.90
2018-08-25T03:56:49.632Z,13.40
2018-08-25T03:59:18.614Z,13.10
2018-08-25T04:01:47.583Z,13.50
2018-08-25T04:04:17.091Z,12.57
2018-08-25T04:06:46.249Z,14.10
2018-08-25T04:09:15.663Z,15.17
2018-08-25T04:11:45.130Z,14.77
2018-08-25T04:14:14.681Z,15.93
2018-08-25T04:16:44.289Z,17.33
2018-08-25T04:19:17.276Z,15.77
2018-08-25T04:21:47.191Z,17.17
2018-08-25T04:24:16.546Z,15.23
2018-08-25T04:26:45.612Z,16.17
2018-08-25T04:29:15.342Z,16.53
2018-08-25T04:31:45.314Z,17.83
2018-08-25T04:34:14.616Z,17.23
2018-08-25T04:36:43.638Z,15.90
2018-08-25T04:39:13.154Z,15.63
2018-08-25T04:41:42.823Z,14.27
2018-08-25T04:44:12.155Z,15.50
2018-08-25T04:46:41.731Z,14.33
2018-08-25T04:49:11.083Z,14.37
2018-08-25T04:51:40.640Z,13.47
2018-08-25T04:54:10.414Z,14.67
2018-08-25T04:56:40.430Z,13.23
2018-08-25T04:59:10.077Z,13.50
2018-08-25T05:01:39.732Z,14.95
2018-08-25T05:04:09.599Z,13.73
2018-08-25T05:06:38.900Z,14.27
2018-08-25T05:09:09.122Z,13.90
2018-08-25T05:11:38.515Z,14.20
2018-08-25T05:14:08.030Z,12.67
2018-08-25T05:16:37.389Z,13.83
2018-08-25T05:19:07.245Z,13.70
2018-08-25T05:21:37.022Z,13.30
2018-08-25T05:24:06.768Z,12.87
2018-08-25T05:26:36.130Z,13.80
2018-08-25T05:29:05.735Z,13.10
2018-08-25T05:31:34.999Z,13.30
2018-08-25T05:34:04.446Z,13.80
2018-08-25T05:36:34.192Z,13.30
2018-08-25T05:39:03.677Z,13.17
2018-08-25T05:41:32.855Z,12.87
2018-08-25T05:44:01.867Z,14.53
2018-08-25T05:46:31.115Z,12.40
2018-08-25T05:49:00.694Z,12.80
2018-08-25T05:51:30.050Z,13.53
2018-08-25T05:54:00.672Z,14.43
2018-08-25T05:56:29.859Z,13.20
2018-08-25T05:58:59.185Z,13.13
2018-08-25T06:01:28.187Z,12.50
2018-08-25T06:03:57.439Z,12.95
2018-08-25T06:06:26.735Z,12.90
2018-08-25T06:08:56.327Z,13.67
2018-08-25T06:11:26.241Z,12.40
2018-08-25T06:13:55.546Z,12.60
2018-08-25T06:16:25.122Z,12.60
2018-08-25T06:18:54.514Z,12.75
2018-08-25T06:21:23.750Z,12.98
2018-08-25T06:23:53.358Z,12.78
2018-08-25T06:26:22.966Z,14.33
2018-08-25T06:28:52.332Z,12.82
2018-08-25T06:31:21.586Z,13.30
2018-08-25T06:33:51.485Z,13.70
2018-08-25T06:36:20.818Z,13.55
2018-08-25T06:38:50.104Z,14.38
2018-08-25T06:41:19.737Z,14.33
2018-08-25T06:43:49.297Z,13.98
2018-08-25T06:46:18.907Z,13.45
2018-08-25T06:48:48.263Z,15.70
2018-08-25T06:51:17.506Z,17.95
2018-08-25T06:53:47.086Z,17.23
2018-08-25T06:56:16.362Z,17.87
2018-08-25T06:58:45.829Z,16.30
2018-08-25T07:01:15.414Z,18.48
2018-08-25T07:03:44.970Z,16.40
2018-08-25T07:06:14.852Z,16.23
2018-08-25T07:08:44.619Z,18.27
2018-08-25T07:11:14.110Z,17.57
2018-08-25T07:13:43.395Z,14.98
2018-08-25T07:16:12.678Z,15.88
2018-08-25T07:18:41.987Z,17.73
2018-08-25T07:21:11.315Z,18.55
2018-08-25T07:23:40.869Z,18.05
2018-08-25T07:26:10.243Z,18.25
2018-08-25T07:28:39.778Z,18.32
2018-08-25T07:31:09.693Z,16.62
2018-08-25T07:33:38.714Z,16.70
2018-08-25T07:36:08.010Z,16.30
2018-08-25T07:38:37.877Z,16.62
2018-08-25T07:41:07.674Z,18.00
2018-08-25T07:43:37.107Z,16.42
2018-08-25T07:46:06.416Z,16.70
2018-08-25T07:48:36.067Z,16.45
2018-08-25T07:51:05.053Z,15.15
2018-08-25T07:53:34.358Z,14.73
2018-08-25T07:56:04.234Z,13.45
2018-08-25T07:58:34.251Z,14.07
2018-08-25T08:01:03.734Z,13.70
2018-08-25T08:03:33.078Z,13.40
2018-08-25T08:06:02.971Z,14.40
2018-08-25T08:08:31.983Z,14.53
2018-08-25T08:11:01.312Z,14.53
2018-08-25T08:13:30.565Z,14.60
2018-08-25T08:15:59.889Z,14.15
2018-08-25T08:18:29.284Z,13.25
2018-08-25T08:20:58.772Z,12.65
2018-08-25T08:23:27.794Z,12.93
2018-08-25T08:25:57.374Z,14.33
2018-08-25T08:28:26.699Z,14.40
2018-08-25T08:30:55.922Z,13.88
2018-08-25T08:33:24.984Z,13.83
2018-08-25T08:35:54.369Z,14.95
2018-08-25T08:38:24.374Z,14.50
2018-08-25T08:40:54.101Z,13.45
2018-08-25T08:43:23.441Z,14.18
2018-08-25T08:45:52.854Z,13.05
2018-08-25T08:48:22.334Z,15.08
2018-08-25T08:50:51.929Z,14.28
2018-08-25T08:53:21.235Z,15.23
2018-08-25T08:55:50.991Z,14.50
2018-08-25T08:58:21.067Z,14.65
2018-08-25T09:00:50.058Z,15.55
2018-08-25T09:03:20.283Z,12.25
2018-08-25T09:05:49.846Z,12.85
2018-08-25T09:08:19.144Z,12.15
2018-08-25T09:10:49.089Z,10.20
2018-08-25T09:13:18.691Z,11.28
2018-08-25T09:15:48.605Z,12.25
2018-08-25T09:18:17.962Z,10.28
2018-08-25T09:20:47.689Z,11.53
2018-08-25T09:23:16.866Z,11.68
2018-08-25T09:25:46.102Z,10.90
2018-08-25T09:30:55.159Z,9.95
2018-08-25T09:33:30.886Z,10.30
2018-08-25T09:36:00.290Z,11.20
2018-08-25T09:38:29.997Z,10.30
2018-08-25T09:40:59.498Z,10.60
2018-08-25T09:43:30.571Z,11.03
2018-08-25T09:45:59.974Z,10.72
2018-08-25T09:48:29.518Z,11.22
2018-08-25T09:50:59.701Z,11.30
2018-08-25T09:53:36.341Z,11.63
2018-08-25T09:56:12.765Z,11.70
2018-08-25T09:58:43.637Z,9.80
2018-08-25T10:01:18.058Z,10.03
2018-08-25T10:03:48.634Z,10.98
2018-08-25T10:06:18.344Z,10.38
2018-08-25T10:08:48.151Z,10.18
2018-08-25T10:11:17.395Z,10.38
2018-08-25T10:13:52.899Z,9.10
2018-08-25T10:16:21.948Z,8.60
2018-08-25T10:18:58.286Z,8.68
2018-08-25T10:21:28.172Z,8.80
2018-08-25T10:23:57.787Z,8.50
2018-08-25T10:26:27.078Z,9.28
2018-08-25T10:28:56.698Z,8.15
2018-08-25T10:31:36.132Z,9.00
2018-08-25T10:34:08.498Z,8.58
2018-08-25T10:36:38.420Z,9.10
2018-08-25T10:39:08.808Z,8.98
2018-08-25T10:41:41.999Z,8.65
2018-08-25T10:44:11.506Z,8.50
2018-08-25T10:46:41.002Z,8.45
2018-08-25T10:49:19.435Z,9.08
2018-08-25T10:51:52.551Z,8.85
2018-08-25T10:54:22.535Z,8.45
2018-08-25T10:56:56.162Z,8.45
2018-08-25T10:59:25.478Z,7.65
2018-08-25T11:01:55.075Z,8.48
2018-08-25T11:04:24.648Z,9.00
2018-08-25T11:06:54.297Z,8.40
2018-08-25T11:09:30.839Z,8.78
2018-08-25T11:12:00.535Z,8.68
2018-08-25T11:14:29.868Z,8.80
2018-08-25T11:16:59.475Z,9.33
2018-08-25T11:19:28.767Z,8.98
2018-08-25T11:21:58.307Z,8.40
2018-08-25T11:24:27.487Z,8.45
2018-08-25T11:26:56.750Z,9.08
2018-08-25T11:29:26.357Z,8.90
2018-08-25T11:31:55.428Z,8.60
2018-08-25T11:34:25.275Z,8.45
2018-08-25T11:36:54.647Z,7.92
2018-08-25T11:39:24.719Z,8.60
2018-08-25T11:41:54.048Z,8.38
2018-08-25T11:44:23.316Z,8.05
2018-08-25T11:46:52.646Z,9.00
2018-08-25T11:49:22.122Z,8.88
2018-08-25T11:51:51.528Z,9.13
2018-08-25T11:54:20.591Z,8.58
2018-08-25T11:56:49.619Z,8.65
2018-08-25T11:59:19.102Z,8.33
2018-08-25T12:01:48.550Z,8.18
2018-08-25T12:04:18.535Z,8.75
2018-08-25T12:06:47.715Z,8.20
2018-08-25T12:09:17.006Z,8.70
2018-08-25T12:11:46.606Z,8.58
2018-08-25T12:14:16.166Z,8.78
2018-08-25T12:16:45.759Z,8.25
2018-08-25T12:19:15.251Z,8.48
2018-08-25T12:21:44.963Z,8.40
2018-08-25T12:24:14.401Z,8.88
2018-08-25T12:26:44.472Z,8.10
2018-08-25T12:29:14.398Z,8.30
2018-08-25T12:31:44.172Z,8.45
2018-08-25T12:34:13.951Z,7.80
2018-08-25T12:36:43.559Z,8.65
2018-08-25T12:39:13.116Z,8.90
2018-08-25T12:41:43.866Z,7.80
2018-08-25T12:44:15.266Z,8.60
2018-08-25T12:46:46.824Z,7.97
2018-08-25T12:49:18.427Z,8.45
2018-08-25T12:51:49.371Z,8.00
2018-08-25T12:54:21.647Z,7.65
2018-08-25T12:56:52.559Z,8.05
2018-08-25T12:59:23.243Z,8.28
2018-08-25T13:01:53.762Z,6.78
2018-08-25T13:04:23.235Z,6.65
2018-08-25T13:06:52.776Z,7.53
2018-08-25T13:09:22.579Z,7.28
2018-08-25T13:11:52.036Z,7.03
2018-08-25T13:14:21.646Z,6.65
2018-08-25T13:16:51.396Z,6.83
2018-08-25T13:19:20.839Z,7.08
2018-08-25T13:21:50.077Z,7.17
2018-08-25T13:24:19.508Z,6.95
2018-08-25T13:26:51.211Z,7.17
2018-08-25T13:29:22.623Z,6.60
2018-08-25T13:31:53.866Z,6.72
2018-08-25T13:34:25.147Z,7.65
2018-08-25T13:36:54.428Z,6.45
2018-08-25T13:39:24.764Z,6.90
2018-08-25T13:41:55.240Z,7.03
2018-08-25T13:44:25.835Z,6.87
2018-08-25T13:46:55.050Z,7.10
2018-08-25T13:49:24.199Z,7.28
2018-08-25T13:51:54.299Z,7.45
2018-08-25T13:54:23.949Z,7.05
2018-08-25T13:56:53.413Z,7.08
2018-08-25T13:59:23.327Z,10.30
2018-08-25T14:01:52.715Z,9.25
2018-08-25T14:04:22.264Z,8.30
2018-08-25T14:06:51.876Z,7.83
2018-08-25T14:09:21.144Z,6.67
2018-08-25T14:11:50.751Z,7.25
2018-08-25T14:14:20.096Z,6.72
2018-08-25T14:16:49.353Z,7.53
2018-08-25T14:19:18.366Z,7.05
2018-08-25T14:21:47.376Z,6.60
2018-08-25T14:24:17.025Z,7.28
2018-08-25T14:26:45.978Z,6.97
2018-08-25T14:29:15.724Z,6.58
2018-08-25T14:31:45.182Z,7.00
2018-08-25T14:34:14.516Z,7.75
2018-08-25T14:36:44.376Z,7.08
2018-08-25T14:39:13.706Z,6.65
2018-08-25T14:41:43.616Z,7.03
2018-08-25T14:44:13.764Z,6.87
2018-08-25T14:46:42.835Z,8.33
2018-08-25T14:49:14.535Z,7.90
2018-08-25T14:51:46.134Z,8.05
2018-08-25T14:54:16.679Z,8.23
2018-08-25T14:56:47.104Z,9.00
2018-08-25T14:59:17.111Z,8.25
2018-08-25T15:01:46.285Z,7.75
2018-08-25T15:04:15.491Z,8.88
2018-08-25T15:06:45.035Z,7.85
2018-08-25T15:09:14.800Z,8.33
2018-08-25T15:11:45.014Z,9.20
2018-08-25T15:14:14.307Z,9.20
2018-08-25T15:16:46.023Z,9.43
2018-08-25T15:19:16.339Z,9.03
2018-08-25T15:21:45.986Z,9.18
2018-08-25T15:24:15.495Z,8.90
2018-08-25T15:26:50.497Z,8.65
2018-08-25T15:29:22.123Z,8.80
2018-08-25T15:32:11.636Z,8.83
2018-08-25T15:34:44.991Z,8.50
2018-08-25T15:37:29.302Z,9.43
2018-08-25T15:40:05.167Z,9.10
2018-08-25T15:42:38.819Z,8.55
2018-08-25T15:45:15.307Z,9.18
2018-08-25T15:47:45.278Z,8.30
2018-08-25T15:50:14.727Z,9.10
2018-08-25T15:52:44.090Z,7.90
2018-08-25T15:55:13.565Z,8.35
2018-08-25T15:57:42.530Z,9.30
2018-08-25T16:00:12.246Z,8.83
2018-08-25T16:02:41.942Z,8.35
2018-08-25T16:05:11.603Z,9.83
2018-08-25T16:07:40.878Z,9.40
2018-08-25T16:10:10.040Z,8.80
2018-08-25T16:12:40.118Z,9.10
2018-08-25T16:15:09.800Z,7.85
2018-08-25T16:17:39.027Z,9.85
2018-08-25T16:20:07.976Z,9.63
2018-08-25T16:22:36.994Z,8.55
2018-08-25T16:25:06.318Z,8.75
2018-08-25T16:27:35.415Z,8.85
2018-08-25T16:30:04.899Z,8.03
2018-08-25T16:32:34.295Z,8.20
2018-08-25T16:35:03.250Z,8.85
2018-08-25T16:37:32.172Z,8.78
2018-08-25T16:40:01.135Z,8.15
2018-08-25T16:42:30.095Z,8.58
2018-08-25T16:44:59.181Z,9.35
2018-08-25T16:47:28.647Z,8.80
2018-08-25T16:49:57.615Z,8.28
2018-08-25T16:52:26.943Z,8.13
2018-08-25T16:54:56.810Z,9.30
2018-08-25T16:57:26.298Z,8.20
2018-08-25T16:59:55.242Z,8.50
2018-08-25T17:02:24.239Z,9.18
2018-08-25T17:04:53.282Z,8.08
2018-08-25T17:07:22.272Z,8.55
2018-08-25T17:09:51.239Z,7.83
2018-08-25T17:12:20.185Z,7.85
2018-08-25T17:14:49.191Z,7.28
2018-08-25T17:17:18.260Z,7.87
2018-08-25T17:19:47.167Z,7.42
2018-08-25T17:22:21.619Z,7.80
2018-08-25T17:24:51.063Z,8.38
2018-08-25T17:27:20.291Z,8.25
2018-08-25T17:29:49.491Z,11.12
2018-08-25T17:32:18.750Z,8.63
2018-08-25T17:34:48.060Z,7.95
2018-08-25T17:37:17.246Z,8.85
2018-08-25T17:40:01.349Z,7.30
2018-08-25T17:42:31.195Z,7.20
2018-08-25T17:45:01.471Z,7.42
2018-08-25T17:47:30.908Z,7.87
2018-08-25T17:50:00.073Z,7.70
2018-08-25T17:52:30.119Z,7.67
2018-08-25T17:54:59.283Z,8.43
2018-08-25T17:57:29.313Z,7.87
2018-08-25T17:59:59.036Z,7.40
2018-08-25T18:02:27.974Z,7.58
2018-08-25T18:04:56.903Z,6.90
2018-08-25T18:07:25.994Z,6.83
2018-08-25T18:09:55.674Z,8.35
2018-08-25T18:12:25.444Z,7.85
2018-08-25T18:14:54.612Z,8.70
2018-08-25T18:17:24.256Z,8.88
2018-08-25T18:19:54.050Z,7.60
2018-08-25T18:22:23.989Z,8.35
2018-08-25T18:24:53.327Z,8.53
2018-08-25T18:27:22.515Z,8.90
2018-08-25T18:29:51.535Z,8.58
2018-08-25T18:32:20.572Z,9.23
2018-08-25T18:34:49.646Z,8.23
2018-08-25T18:37:18.753Z,9.50
2018-08-25T18:39:47.704Z,8.65
2018-08-25T18:42:16.927Z,8.18
2018-08-25T18:44:45.923Z,8.88
2018-08-25T18:47:14.896Z,8.45
2018-08-25T18:49:43.863Z,8.75
2018-08-25T18:52:12.901Z,8.18
2018-08-25T18:54:41.992Z,8.53
2018-08-25T18:57:12.005Z,8.55
2018-08-25T18:59:42.015Z,8.58
2018-08-25T19:02:11.137Z,9.30
2018-08-25T19:04:40.077Z,9.85
2018-08-25T19:07:09.052Z,9.98
2018-08-25T19:09:38.544Z,10.38
2018-08-25T19:12:07.876Z,10.20
2018-08-25T19:14:36.850Z,11.03
2018-08-25T19:17:05.828Z,10.48
2018-08-25T19:19:34.811Z,11.35
2018-08-25T19:22:03.771Z,11.68
2018-08-25T19:24:32.726Z,11.63
2018-08-25T19:27:01.842Z,10.63
2018-08-25T19:29:30.843Z,9.85
2018-08-25T19:31:59.918Z,9.35
2018-08-25T19:34:29.395Z,10.53
2018-08-25T19:36:58.486Z,10.32
2018-08-25T19:39:27.457Z,9.30
2018-08-25T19:41:56.431Z,9.43
2018-08-25T19:44:25.711Z,9.73
2018-08-25T19:46:56.268Z,9.60
2018-08-25T19:49:27.065Z,9.08
2018-08-25T19:51:56.406Z,11.38
2018-08-25T19:54:25.382Z,10.30
2018-08-25T19:56:54.443Z,10.95
2018-08-25T19:59:23.421Z,12.60
2018-08-25T20:01:52.484Z,11.88
2018-08-25T20:04:21.614Z,10.93
2018-08-25T20:06:50.586Z,10.53
2018-08-25T20:09:19.722Z,9.97
2018-08-25T20:11:48.875Z,10.30
2018-08-25T20:14:17.850Z,10.23
2018-08-25T20:16:46.867Z,10.23
2018-08-25T20:19:16.131Z,10.30
2018-08-25T20:21:45.119Z,9.23
2018-08-25T20:24:14.210Z,9.25
2018-08-25T20:26:43.201Z,8.45
2018-08-25T20:29:12.305Z,8.13
2018-08-25T20:31:41.528Z,9.00
2018-08-25T20:34:10.559Z,9.70
2018-08-25T20:36:39.778Z,8.35
2018-08-25T20:39:09.954Z,8.95
2018-08-25T20:41:39.117Z,7.90
2018-08-25T20:44:08.250Z,8.23
2018-08-25T20:46:37.674Z,8.75
2018-08-25T20:49:06.712Z,8.03
2018-08-25T20:51:36.905Z,7.37
2018-08-25T20:54:06.429Z,7.80
2018-08-25T20:56:37.649Z,8.73
2018-08-25T20:59:07.181Z,8.20
2018-08-25T21:01:39.366Z,8.13
2018-08-25T21:04:08.791Z,7.80
2018-08-25T21:06:37.825Z,8.28
2018-08-25T21:09:08.142Z,8.60
2018-08-25T21:11:37.678Z,7.90
2018-08-25T21:14:10.478Z,8.83
2018-08-25T21:16:40.423Z,7.17
2018-08-25T21:19:10.494Z,8.35
2018-08-25T21:21:39.942Z,8.90
2018-08-25T21:24:11.026Z,9.35
2018-08-25T21:26:40.239Z,10.80
2018-08-25T21:29:10.153Z,10.77
2018-08-25T21:31:41.341Z,11.35
2018-08-25T21:34:10.843Z,9.07
2018-08-25T21:36:39.949Z,10.23
2018-08-25T21:39:10.720Z,9.53
2018-08-25T21:41:42.248Z,9.27
2018-08-25T21:44:11.689Z,8.08
2018-08-25T21:46:41.128Z,9.80
2018-08-25T21:49:10.796Z,9.23
2018-08-25T21:51:40.208Z,9.37
2018-08-25T21:54:10.147Z,10.37
2018-08-25T21:56:39.527Z,9.20
2018-08-25T21:59:08.563Z,9.53
2018-08-25T22:01:42.425Z,9.87
2018-08-25T22:04:12.899Z,9.53
2018-08-25T22:06:42.794Z,10.30
2018-08-25T22:09:12.727Z,9.90
2018-08-25T22:11:42.090Z,9.63
2018-08-25T22:14:11.431Z,8.80
2018-08-25T22:16:40.719Z,11.07
2018-08-25T22:19:10.294Z,10.03
2018-08-25T22:21:40.030Z,10.15
2018-08-25T22:24:09.218Z,8.67
2018-08-25T22:26:39.117Z,8.87
2018-08-25T22:29:08.726Z,8.33
2018-08-25T22:31:38.048Z,8.33
2018-08-25T22:34:07.325Z,8.30
2018-08-25T22:36:36.932Z,9.50
2018-08-25T22:39:07.571Z,8.67
2018-08-25T22:41:37.557Z,9.57
2018-08-25T22:44:07.339Z,9.03
2018-08-25T22:46:36.880Z,9.00
2018-08-25T22:49:06.451Z,8.87
2018-08-25T22:51:35.551Z,8.80
2018-08-25T22:54:04.803Z,8.80
2018-08-25T22:56:34.409Z,8.67
2018-08-25T22:59:03.418Z,8.70
2018-08-25T23:01:33.519Z,9.17
2018-08-25T23:04:03.206Z,9.10
2018-08-25T23:06:32.697Z,9.73
2018-08-25T23:09:15.136Z,9.00
2018-08-25T23:11:44.375Z,10.00
2018-08-25T23:14:13.399Z,9.17
2018-08-25T23:16:42.639Z,8.60
2018-08-25T23:19:11.962Z,8.63
2018-08-25T23:21:41.851Z,9.07
2018-08-25T23:24:11.767Z,9.30
2018-08-25T23:26:41.375Z,9.33
2018-08-25T23:29:10.707Z,9.20
2018-08-25T23:31:39.690Z,8.57
2018-08-25T23:34:08.687Z,9.30
2018-08-25T23:36:38.130Z,9.03
2018-08-25T23:39:07.876Z,9.50
2018-08-25T23:41:37.486Z,10.43
2018-08-25T23:44:06.932Z,10.40
2018-08-25T23:46:36.172Z,8.67
2018-08-25T23:49:05.695Z,9.50
2018-08-25T23:51:35.014Z,10.03
2018-08-25T23:54:04.382Z,11.10
2018-08-25T23:56:33.473Z,10.37
2018-08-25T23:59:02.671Z,11.13
